createdAt,value
2023-02-23T00:01:39.228Z,100512.41
2023-02-23T00:04:39.299Z,100512.38
2023-02-23T00:07:39.235Z,100537.56
2023-02-23T00:10:39.282Z,100543.47
2023-02-23T00:13:39.296Z,100541.66
2023-02-23T00:16:39.271Z,100542.63
2023-02-23T00:19:40.232Z,100547.69
2023-02-23T00:22:40.238Z,100548.50
2023-02-23T00:25:40.264Z,100543.31
2023-02-23T00:28:33.316Z,100542.28
2023-02-23T00:31:35.345Z,100539.72
2023-02-23T00:34:35.267Z,100532.00
2023-02-23T00:37:29.250Z,100542.37
2023-02-23T00:40:13.971Z,100541.53
2023-02-23T00:42:59.262Z,100538.94
2023-02-23T00:45:39.306Z,100539.91
2023-02-23T00:48:26.244Z,100542.37
2023-02-23T00:51:17.553Z,100532.91
2023-02-23T00:54:10.262Z,100536.34
2023-02-23T00:56:56.240Z,100540.72
2023-02-23T00:59:56.293Z,100538.09
2023-02-23T01:02:58.226Z,100541.56
2023-02-23T01:05:59.250Z,100535.53
2023-02-23T01:09:03.234Z,100534.91
2023-02-23T01:12:04.211Z,100543.47
2023-02-23T01:15:04.258Z,100538.34
2023-02-23T01:18:04.257Z,100535.03
2023-02-23T01:21:04.229Z,100539.41
2023-02-23T01:24:05.257Z,100535.16
2023-02-23T01:27:05.292Z,100539.53
2023-02-23T01:30:05.270Z,100528.44
2023-02-23T01:33:05.235Z,100536.84
2023-02-23T01:36:12.218Z,100530.12
2023-02-23T01:39:14.274Z,100516.19
2023-02-23T01:42:14.291Z,100529.66
2023-02-23T01:45:35.288Z,100515.97
2023-02-23T01:48:43.262Z,100525.25
2023-02-23T01:51:51.253Z,100518.31
2023-02-23T01:54:57.259Z,100523.59
2023-02-23T01:57:57.282Z,100526.22
2023-02-23T02:01:01.270Z,100523.62
2023-02-23T02:04:23.254Z,100512.63
2023-02-23T02:07:33.263Z,100512.75
2023-02-23T02:10:46.234Z,100520.50
2023-02-23T02:13:47.266Z,100526.72
2023-02-23T02:17:28.268Z,100504.94
2023-02-23T02:20:49.222Z,100522.72
2023-02-23T02:24:04.274Z,100525.66
2023-02-23T02:27:13.260Z,100519.19
2023-02-23T02:30:31.260Z,100518.66
2023-02-23T02:33:50.227Z,100516.44
2023-02-23T02:37:39.257Z,100514.19
2023-02-23T02:41:12.237Z,100519.69
2023-02-23T02:44:16.274Z,100517.41
2023-02-23T02:47:22.234Z,100498.41
2023-02-23T02:50:29.245Z,100514.84
2023-02-23T02:53:36.258Z,100514.28
2023-02-23T02:56:40.380Z,100517.28
2023-02-23T02:59:58.329Z,100510.28
2023-02-23T03:03:16.239Z,100518.97
2023-02-23T03:06:34.231Z,100516.53
2023-02-23T03:10:22.236Z,100497.50
2023-02-23T03:13:42.232Z,100520.00
2023-02-23T03:17:13.234Z,100521.91
2023-02-23T03:20:47.225Z,100529.06
2023-02-23T03:24:14.265Z,100526.69
2023-02-23T03:27:59.207Z,100524.50
2023-02-23T03:31:28.295Z,100533.38
2023-02-23T03:34:49.217Z,100528.13
2023-02-23T03:38:17.258Z,100525.56
2023-02-23T03:41:36.222Z,100520.78
2023-02-23T03:45:06.253Z,100529.28
2023-02-23T03:48:25.249Z,100532.06
2023-02-23T03:51:44.231Z,100533.13
2023-02-23T03:55:08.282Z,100534.16
2023-02-23T03:58:28.257Z,100531.66
2023-02-23T04:01:46.289Z,100529.94
2023-02-23T04:05:05.224Z,100534.38
2023-02-23T04:08:23.239Z,100540.34
2023-02-23T04:11:50.209Z,100518.47
2023-02-23T04:15:02.251Z,100538.87
2023-02-23T04:18:02.256Z,100538.87
2023-02-23T04:21:02.356Z,100538.22
2023-02-23T04:24:02.215Z,100535.72
2023-02-23T04:27:02.207Z,100531.66
2023-02-23T04:30:02.222Z,100541.06
2023-02-23T04:33:02.258Z,100541.22
2023-02-23T04:36:02.243Z,100543.13
2023-02-23T04:39:02.262Z,100536.94
2023-02-23T04:42:02.266Z,100544.69
2023-02-23T04:45:02.228Z,100529.53
2023-02-23T04:48:02.233Z,100547.44
2023-02-23T04:51:06.249Z,100548.28
2023-02-23T04:54:06.239Z,100544.16
2023-02-23T04:57:06.227Z,100544.06
2023-02-23T05:00:06.266Z,100535.78
2023-02-23T05:03:06.267Z,100543.34
2023-02-23T05:06:06.247Z,100539.97
2023-02-23T05:09:06.247Z,100541.59
2023-02-23T05:12:06.450Z,100540.81
2023-02-23T05:15:06.261Z,100542.72
2023-02-23T05:18:06.212Z,100540.44
2023-02-23T05:21:07.249Z,100547.06
2023-02-23T05:24:07.218Z,100547.09
2023-02-23T05:27:07.235Z,100541.22
2023-02-23T05:30:07.203Z,100522.63
2023-02-23T05:33:07.231Z,100548.81
2023-02-23T05:36:07.257Z,100552.37
2023-02-23T05:39:07.239Z,100550.59
2023-02-23T05:42:07.282Z,100552.37
2023-02-23T05:45:07.246Z,100558.31
2023-02-23T05:48:07.259Z,100561.59
2023-02-23T05:51:07.247Z,100564.03
2023-02-23T05:54:07.224Z,100570.81
2023-02-23T05:57:07.244Z,100576.69
2023-02-23T06:00:07.269Z,100578.88
2023-02-23T06:03:07.255Z,100573.66
2023-02-23T06:06:08.223Z,100591.34
2023-02-23T06:09:08.257Z,100586.91
2023-02-23T06:12:08.226Z,100598.00
2023-02-23T06:15:01.256Z,100590.00
2023-02-23T06:17:47.199Z,100586.56
2023-02-23T06:20:47.243Z,100608.47
2023-02-23T06:23:47.209Z,100604.75
2023-02-23T06:26:48.252Z,100606.87
2023-02-23T06:29:48.218Z,100596.56
2023-02-23T06:32:51.273Z,100614.13
2023-02-23T06:35:53.230Z,100611.34
2023-02-23T06:38:53.265Z,100618.69
2023-02-23T06:41:50.267Z,100615.94
2023-02-23T06:44:50.661Z,100537.06
2023-02-23T06:47:51.262Z,100621.81
2023-02-23T06:50:51.462Z,100621.34
2023-02-23T06:53:51.234Z,100623.72
2023-02-23T06:56:51.236Z,100607.31
2023-02-23T06:59:52.262Z,100621.94
2023-02-23T07:02:52.231Z,100612.12
2023-02-23T07:05:52.236Z,100627.97
2023-02-23T07:08:52.258Z,100625.00
2023-02-23T07:11:53.297Z,100592.47
2023-02-23T07:14:54.248Z,100615.03
2023-02-23T07:17:55.273Z,100625.62
2023-02-23T07:20:55.466Z,100626.00
2023-02-23T07:23:57.273Z,100606.94
2023-02-23T07:26:57.245Z,100612.03
2023-02-23T07:29:57.261Z,100625.69
2023-02-23T07:32:57.317Z,100606.28
2023-02-23T07:35:57.196Z,100611.91
2023-02-23T07:39:00.270Z,100622.63
2023-02-23T07:42:03.494Z,100621.47
2023-02-23T07:45:03.257Z,100603.75
2023-02-23T07:48:04.269Z,100611.72
2023-02-23T07:51:04.247Z,100619.50
2023-02-23T07:54:04.249Z,100606.97
2023-02-23T07:57:04.271Z,100620.81
2023-02-23T08:00:04.252Z,100609.03
2023-02-23T08:03:05.220Z,100605.81
2023-02-23T08:05:58.359Z,100620.97
2023-02-23T08:08:58.306Z,100614.44
2023-02-23T08:11:58.246Z,100635.56
2023-02-23T08:15:08.877Z,100616.97
2023-02-23T08:18:19.371Z,100624.88
2023-02-23T08:21:51.217Z,100635.84
2023-02-23T08:24:52.378Z,100634.03
2023-02-23T08:27:52.337Z,100631.69
2023-02-23T08:30:54.939Z,100622.47
2023-02-23T08:34:02.225Z,100632.34
2023-02-23T08:37:02.258Z,100604.94
2023-02-23T08:50:11.798Z,100630.59
2023-02-23T08:53:11.663Z,100631.97
2023-02-23T08:56:15.774Z,100625.47
2023-02-23T08:59:24.066Z,100638.03
2023-02-23T09:02:27.711Z,100644.03
2023-02-23T09:05:58.697Z,100620.69
2023-02-23T09:12:09.712Z,100617.38
2023-02-23T09:15:24.740Z,100621.31
2023-02-23T09:18:30.658Z,100674.87
2023-02-23T09:21:32.634Z,100639.44
2023-02-23T09:24:37.456Z,100628.38
2023-02-23T09:27:37.680Z,100631.59
2023-02-23T09:30:39.682Z,100584.84
2023-02-23T09:33:46.872Z,100634.50
2023-02-23T09:36:48.678Z,100600.66
2023-02-23T09:40:02.785Z,100627.37
2023-02-23T09:43:19.669Z,100596.03
2023-02-23T09:46:27.792Z,100648.03
2023-02-23T09:49:36.718Z,100623.87
2023-02-23T09:52:42.301Z,100629.75
2023-02-23T09:55:42.641Z,100633.66
2023-02-23T09:58:46.665Z,100623.28
2023-02-23T10:02:02.798Z,100623.44
2023-02-23T10:05:20.996Z,100654.91
2023-02-23T10:08:28.862Z,100620.88
2023-02-23T10:11:36.364Z,100626.56
2023-02-23T10:14:40.672Z,100643.94
2023-02-23T10:18:09.646Z,100637.59
2023-02-23T10:21:18.071Z,100606.66
2023-02-23T10:24:35.674Z,100636.00
2023-02-23T10:27:39.691Z,100627.19
2023-02-23T10:30:40.731Z,100624.22
2023-02-23T10:41:25.477Z,100534.06
2023-02-23T10:44:32.923Z,100607.56
2023-02-23T10:47:57.879Z,100568.50
2023-02-23T10:51:44.441Z,100537.12
2023-02-23T10:54:40.725Z,100614.53
2023-02-23T10:57:42.401Z,100615.00
2023-02-23T11:00:39.702Z,100586.03
2023-02-23T11:03:52.248Z,100597.50
2023-02-23T11:06:53.763Z,100597.19
2023-02-23T11:09:57.760Z,100570.72
2023-02-23T11:16:30.081Z,100588.31
2023-02-23T11:19:48.829Z,100558.31
2023-02-23T11:22:57.117Z,100540.94
2023-02-23T11:26:24.875Z,100543.59
2023-02-23T11:29:42.680Z,100537.66
2023-02-23T11:33:47.937Z,100547.72
2023-02-23T11:37:13.693Z,100578.91
2023-02-23T11:40:41.695Z,100562.28
2023-02-23T11:43:53.562Z,100560.03
2023-02-23T11:46:55.733Z,100543.59
2023-02-23T11:50:11.789Z,100557.59
2023-02-23T11:53:35.724Z,100546.63
2023-02-23T11:56:41.805Z,100539.44
2023-02-23T11:59:53.538Z,100518.84
2023-02-23T12:03:05.816Z,100540.03
2023-02-23T12:06:10.750Z,100537.34
2023-02-23T12:09:34.784Z,100540.09
2023-02-23T12:12:35.709Z,100536.09
2023-02-23T12:19:46.714Z,100541.19
2023-02-23T12:22:52.709Z,100541.63
2023-02-23T12:26:08.729Z,100506.47
2023-02-23T12:29:17.744Z,100514.50
2023-02-23T12:32:31.997Z,100514.13
2023-02-23T12:35:42.690Z,100522.16
2023-02-23T12:39:05.815Z,100484.47
2023-02-23T12:42:28.132Z,100512.47
2023-02-23T12:45:44.940Z,100510.66
2023-02-23T12:53:19.929Z,100532.13
2023-02-23T12:56:39.865Z,100475.03
2023-02-23T12:59:51.693Z,100470.69
2023-02-23T13:03:09.723Z,100474.63
2023-02-23T13:06:22.688Z,100502.81
2023-02-23T13:09:51.729Z,100504.63
2023-02-23T13:12:57.691Z,100491.84
2023-02-23T13:16:11.732Z,100489.91
2023-02-23T13:19:41.855Z,100423.37
2023-02-23T13:22:40.858Z,100480.63
2023-02-23T13:25:34.715Z,100486.22
2023-02-23T13:28:23.033Z,100491.72
2023-02-23T13:31:08.809Z,100483.12
2023-02-23T13:33:55.741Z,100486.12
2023-02-23T13:36:56.716Z,100476.16
2023-02-23T13:39:59.721Z,100474.03
2023-02-23T13:43:14.696Z,100467.69
2023-02-23T13:46:33.712Z,100478.44
2023-02-23T13:49:34.763Z,100476.63
2023-02-23T13:52:47.971Z,100484.78
2023-02-23T13:56:03.928Z,100454.44
2023-02-23T13:59:08.725Z,100470.44
2023-02-23T14:02:10.910Z,100475.06
2023-02-23T14:05:11.706Z,100473.84
2023-02-23T14:08:14.576Z,100468.94
2023-02-23T14:11:14.737Z,100467.84
2023-02-23T14:14:36.728Z,100463.13
2023-02-23T14:17:36.693Z,100465.69
2023-02-23T14:21:05.887Z,100464.00
2023-02-23T14:24:15.697Z,100460.75
2023-02-23T14:27:17.068Z,100432.47
2023-02-23T14:30:24.745Z,100461.75
2023-02-23T14:33:48.708Z,100453.50
2023-02-23T14:36:59.713Z,100436.16
2023-02-23T14:40:03.814Z,100458.16
2023-02-23T14:43:06.680Z,100451.56
2023-02-23T14:46:09.854Z,100442.59
2023-02-23T14:49:14.720Z,100429.41
2023-02-23T14:52:20.770Z,100453.50
2023-02-23T14:55:29.174Z,100451.09
2023-02-23T14:58:39.700Z,100451.66
2023-02-23T15:01:52.746Z,100446.41
2023-02-23T15:04:58.787Z,100445.75
2023-02-23T15:08:02.712Z,100419.78
2023-02-23T15:11:25.679Z,100444.09
2023-02-23T15:14:28.831Z,100436.22
2023-02-23T15:17:31.719Z,100434.13
2023-02-23T15:20:38.532Z,100424.28
2023-02-23T15:23:38.762Z,100398.94
2023-02-23T15:26:49.725Z,100432.94
2023-02-23T15:29:49.685Z,100430.97
2023-02-23T15:32:51.833Z,100441.09
2023-02-23T15:36:02.678Z,100433.94
2023-02-23T15:39:04.711Z,100421.88
2023-02-23T15:42:04.683Z,100429.28
2023-02-23T15:45:15.747Z,100433.63
2023-02-23T15:48:24.783Z,100430.03
2023-02-23T15:51:33.717Z,100434.34
2023-02-23T15:54:46.693Z,100433.34
2023-02-23T15:57:54.686Z,100433.25
2023-02-23T16:00:55.687Z,100428.88
2023-02-23T16:04:00.799Z,100423.47
2023-02-23T16:07:20.732Z,100422.44
2023-02-23T16:10:36.708Z,100401.19
2023-02-23T16:13:36.734Z,100418.91
2023-02-23T16:16:36.743Z,100407.59
2023-02-23T16:19:36.695Z,100418.12
2023-02-23T16:22:38.669Z,100406.84
2023-02-23T16:25:39.741Z,100416.41
2023-02-23T16:28:44.842Z,100379.78
2023-02-23T16:32:01.836Z,100412.69
2023-02-23T16:35:04.727Z,100405.00
2023-02-23T16:38:10.784Z,100408.44
2023-02-23T16:41:10.731Z,100415.69
2023-02-23T16:44:13.709Z,100423.84
2023-02-23T16:47:16.694Z,100426.63
2023-02-23T16:50:25.744Z,100418.41
2023-02-23T16:53:25.713Z,100418.84
2023-02-23T16:56:28.754Z,100414.16
2023-02-23T16:59:30.732Z,100422.22
2023-02-23T17:02:31.722Z,100394.34
2023-02-23T17:05:34.732Z,100424.94
2023-02-23T17:08:36.674Z,100423.41
2023-02-23T17:11:36.695Z,100417.78
2023-02-23T17:14:40.731Z,100415.66
2023-02-23T17:17:40.739Z,100417.78
2023-02-23T17:20:41.696Z,100420.78
2023-02-23T17:23:46.701Z,100404.31
2023-02-23T17:26:46.724Z,100419.59
2023-02-23T17:29:46.766Z,100416.47
2023-02-23T17:32:46.836Z,100418.72
2023-02-23T17:35:46.736Z,100421.69
2023-02-23T17:38:50.778Z,100421.25
2023-02-23T17:41:50.728Z,100396.44
2023-02-23T17:44:50.795Z,100421.41
2023-02-23T17:47:50.704Z,100414.03
2023-02-23T17:50:50.696Z,100411.66
2023-02-23T17:53:50.762Z,100411.22
2023-02-23T17:56:50.779Z,100418.00
2023-02-23T17:59:50.734Z,100406.41
2023-02-23T18:02:50.821Z,100406.56
2023-02-23T18:05:50.688Z,100415.09
2023-02-23T18:08:51.696Z,100411.13
2023-02-23T18:11:51.718Z,100413.09
2023-02-23T18:14:51.696Z,100411.72
2023-02-23T18:17:51.718Z,100408.53
2023-02-23T18:20:51.730Z,100398.56
2023-02-23T18:23:51.682Z,100375.41
2023-02-23T18:26:51.713Z,100389.91
2023-02-23T18:29:51.714Z,100377.72
2023-02-23T18:32:51.757Z,100397.22
2023-02-23T18:35:54.695Z,100391.47
2023-02-23T18:38:54.724Z,100395.19
2023-02-23T18:41:54.696Z,100377.03
2023-02-23T18:44:54.695Z,100397.56
2023-02-23T18:47:54.806Z,100391.72
2023-02-23T18:50:54.670Z,100387.84
2023-02-23T18:53:54.710Z,100393.72
2023-02-23T18:56:54.764Z,100387.34
2023-02-23T18:59:54.738Z,100385.72
2023-02-23T19:02:54.689Z,100396.25
2023-02-23T19:05:59.682Z,100394.75
2023-02-23T19:09:02.703Z,100395.12
2023-02-23T19:12:02.659Z,100396.84
2023-02-23T19:15:04.732Z,100391.25
2023-02-23T19:18:04.698Z,100388.94
2023-02-23T19:21:04.696Z,100383.25
2023-02-23T19:24:05.701Z,100392.63
2023-02-23T19:27:05.730Z,100394.72
2023-02-23T19:30:05.723Z,100396.66
2023-02-23T19:33:05.858Z,100399.22
2023-02-23T19:36:07.711Z,100394.25
2023-02-23T19:39:16.704Z,100392.84
2023-02-23T19:42:16.679Z,100381.06
2023-02-23T19:45:16.735Z,100361.12
2023-02-23T19:48:16.721Z,100385.66
2023-02-23T19:51:16.675Z,100374.12
2023-02-23T19:54:16.708Z,100389.34
2023-02-23T19:57:16.677Z,100387.72
2023-02-23T20:00:18.738Z,100388.81
2023-02-23T20:03:20.687Z,100389.53
2023-02-23T20:06:20.709Z,100360.03
2023-02-23T20:09:20.721Z,100392.13
2023-02-23T20:12:20.725Z,100383.47
2023-02-23T20:15:21.697Z,100376.78
2023-02-23T20:18:21.721Z,100383.72
2023-02-23T20:21:25.719Z,100358.28
2023-02-23T20:24:25.702Z,100365.31
2023-02-23T20:27:28.713Z,100379.81
2023-02-23T20:30:28.704Z,100378.12
2023-02-23T20:33:28.714Z,100363.38
2023-02-23T20:36:28.655Z,100364.22
2023-02-23T20:39:28.724Z,100364.69
2023-02-23T20:42:28.675Z,100352.03
2023-02-23T20:45:33.727Z,100358.00
2023-02-23T20:48:33.712Z,100363.22
2023-02-23T20:51:33.720Z,100365.03
2023-02-23T20:54:33.696Z,100362.50
2023-02-23T20:57:33.691Z,100366.97
2023-02-23T21:00:38.670Z,100356.88
2023-02-23T21:03:38.752Z,100362.06
2023-02-23T21:06:39.685Z,100369.94
2023-02-23T21:09:39.690Z,100355.31
2023-02-23T21:12:39.713Z,100355.31
2023-02-23T21:15:41.713Z,100352.72
2023-02-23T21:18:41.677Z,100357.25
2023-02-23T21:21:41.698Z,100354.50
2023-02-23T21:24:41.726Z,100352.03
2023-02-23T21:27:41.712Z,100354.34
2023-02-23T21:30:41.746Z,100329.81
2023-02-23T21:33:41.672Z,100355.91
2023-02-23T21:36:41.683Z,100349.03
2023-02-23T21:39:41.728Z,100346.66
2023-02-23T21:42:42.730Z,100348.59
2023-02-23T21:45:42.688Z,100351.34
2023-02-23T21:48:42.744Z,100344.38
2023-02-23T21:51:42.715Z,100347.00
2023-02-23T21:54:42.653Z,100339.66
2023-02-23T21:57:45.682Z,100346.47
2023-02-23T22:00:45.708Z,100343.84
2023-02-23T22:03:45.725Z,100342.16
2023-02-23T22:06:55.719Z,100328.63
2023-02-23T22:09:55.697Z,100329.41
2023-02-23T22:12:50.189Z,100334.63
2023-02-23T22:15:49.721Z,100332.25
2023-02-23T22:18:49.725Z,100323.94
2023-02-23T22:21:51.676Z,100323.88
2023-02-23T22:24:51.666Z,100298.69
2023-02-23T22:27:51.692Z,100326.47
2023-02-23T22:30:51.667Z,100325.91
2023-02-23T22:33:53.685Z,100318.28
2023-02-23T22:36:53.727Z,100321.06
2023-02-23T22:39:53.655Z,100316.78
2023-02-23T22:42:55.710Z,100315.09
2023-02-23T22:45:56.672Z,100308.25
2023-02-23T22:48:57.675Z,100280.41
2023-02-23T22:51:57.690Z,100305.66
2023-02-23T22:54:57.719Z,100303.25
2023-02-23T22:57:57.670Z,100297.41
2023-02-23T23:01:12.681Z,100282.09
2023-02-23T23:04:16.684Z,100289.19
2023-02-23T23:07:16.729Z,100265.50
2023-02-23T23:10:16.671Z,100289.47
2023-02-23T23:13:18.693Z,100287.84
2023-02-23T23:16:30.545Z,100287.97
2023-02-23T23:19:32.677Z,100278.03
2023-02-23T23:22:32.704Z,100288.91
2023-02-23T23:25:32.735Z,100293.84
2023-02-23T23:28:33.667Z,100286.59
2023-02-23T23:31:36.899Z,100281.00
2023-02-23T23:34:39.720Z,100284.91
2023-02-23T23:37:39.666Z,100286.16
2023-02-23T23:40:42.745Z,100274.41
2023-02-23T23:43:43.683Z,100272.31
2023-02-23T23:46:48.679Z,100277.97
2023-02-23T23:49:49.701Z,100269.09
2023-02-23T23:52:50.663Z,100255.88
2023-02-23T23:55:50.706Z,100258.16
2023-02-23T23:58:51.686Z,100264.56
